Time,TemperatureF,DewpointF,PressureIn,WindDirection,WindDirectionDegrees,WindSpeedMPH,WindSpeedGustMPH,Humidity,HourlyPrecipIn,Conditions,Clouds,dailyrainin,SoftwareType,DateUTC
2017-04-25 00:01:00,50.3,43.0,30.05,ENE,67,0.0,-999.0,77,-99.99,,,0.00,weatherlink.com 1.10,2017-04-25 04:01:00,
2017-04-25 00:16:00,49.7,43.0,30.04,ENE,67,0.0,-999.0,79,-99.99,,,0.00,weatherlink.com 1.10,2017-04-25 04:16:00,
2017-04-25 00:31:00,50.3,44.0,30.04,ENE,67,0.0,-999.0,78,-99.99,,,0.00,weatherlink.com 1.10,2017-04-25 04:31:00,
2017-04-25 00:46:00,50.4,43.0,30.04,ENE,67,0.0,-999.0,77,-99.99,,,0.00,weatherlink.com 1.10,2017-04-25 04:46:00,
2017-04-25 01:01:00,49.8,44.0,30.04,ENE,67,0.0,-999.0,79,-99.99,,,0.00,weatherlink.com 1.10,2017-04-25 05:01:00,
2017-04-25 01:16:00,48.8,43.0,30.04,ENE,67,0.0,-999.0,79,-99.99,,,0.00,weatherlink.com 1.10,2017-04-25 05:16:00,
2017-04-25 01:31:00,48.1,43.0,30.04,ENE,75,0.0,-999.0,81,-99.99,,,0.00,weatherlink.com 1.10,2017-04-25 05:31:00,
2017-04-25 01:46:00,47.8,42.0,30.04,ENE,75,0.0,-999.0,80,-99.99,,,0.00,weatherlink.com 1.10,2017-04-25 05:46:00,
2017-04-25 02:01:00,46.9,42.0,30.03,ENE,75,0.0,-999.0,82,-99.99,,,0.00,weatherlink.com 1.10,2017-04-25 06:01:00,
2017-04-25 02:16:00,46.8,42.0,30.03,ENE,76,0.0,-999.0,83,-99.99,,,0.00,weatherlink.com 1.10,2017-04-25 06:16:00,
2017-04-25 02:39:00,48.4,44.0,30.03,ENE,76,0.0,-999.0,83,-99.99,,,0.00,weatherlink.com 1.10,2017-04-25 06:39:00,
2017-04-25 02:47:00,50.2,43.0,30.02,ENE,78,1.0,-999.0,76,-99.99,,,0.00,weatherlink.com 1.10,2017-04-25 06:47:00,
2017-04-25 03:01:00,50.6,42.0,30.02,ENE,78,0.0,-999.0,73,-99.99,,,0.00,weatherlink.com 1.10,2017-04-25 07:01:00,
2017-04-25 03:16:00,50.1,42.0,30.02,ENE,78,0.0,-999.0,75,-99.99,,,0.00,weatherlink.com 1.10,2017-04-25 07:16:00,
2017-04-25 03:46:00,52.5,43.0,30.01,ESE,113,6.0,-999.0,70,-99.99,,,0.00,weatherlink.com 1.10,2017-04-25 07:46:00,
2017-04-25 04:01:00,53.0,43.0,30.01,ESE,117,0.0,-999.0,70,-99.99,,,0.00,weatherlink.com 1.10,2017-04-25 08:01:00,
2017-04-25 04:16:00,53.0,43.0,30.01,South,169,1.0,-999.0,70,-99.99,,,0.00,weatherlink.com 1.10,2017-04-25 08:16:00,
2017-04-25 04:31:00,53.0,45.0,30.01,ESE,120,0.0,-999.0,73,-99.99,,,0.00,weatherlink.com 1.10,2017-04-25 08:31:00,
2017-04-25 04:46:00,52.4,44.0,30.01,SE,129,0.0,-999.0,73,-99.99,,,0.00,weatherlink.com 1.10,2017-04-25 08:46:00,
2017-04-25 05:01:00,52.3,44.0,30.01,SSE,150,2.0,-999.0,74,-99.99,,,0.00,weatherlink.com 1.10,2017-04-25 09:01:00,
2017-04-25 05:16:00,51.9,44.0,30.01,SE,136,0.0,-999.0,74,-99.99,,,0.00,weatherlink.com 1.10,2017-04-25 09:16:00,
2017-04-25 05:31:00,51.9,45.0,30.01,SE,141,0.0,-999.0,77,-99.99,,,0.00,weatherlink.com 1.10,2017-04-25 09:31:00,
2017-04-25 05:46:00,51.6,45.0,30.02,East,101,1.0,-999.0,78,-99.99,,,0.00,weatherlink.com 1.10,2017-04-25 09:46:00,
2017-04-25 06:01:00,51.3,45.0,30.02,ESE,121,0.0,-999.0,79,-99.99,,,0.00,weatherlink.com 1.10,2017-04-25 10:01:00,
2017-04-25 06:16:00,51.2,45.0,30.02,SSE,147,5.0,-999.0,80,-99.99,,,0.00,weatherlink.com 1.10,2017-04-25 10:16:00,
2017-04-25 06:31:00,51.0,45.0,30.03,SE,138,6.0,-999.0,80,-99.99,,,0.00,weatherlink.com 1.10,2017-04-25 10:31:00,
2017-04-25 06:46:00,51.2,46.0,30.04,SE,126,0.0,-999.0,81,-99.99,,,0.00,weatherlink.com 1.10,2017-04-25 10:46:00,
2017-04-25 07:01:00,51.2,46.0,30.04,ENE,68,1.0,-999.0,81,-99.99,,,0.01,weatherlink.com 1.10,2017-04-25 11:01:00,
2017-04-25 07:16:00,51.1,46.0,30.05,East,100,0.0,-999.0,83,-99.99,,,0.01,weatherlink.com 1.10,2017-04-25 11:16:00,
2017-04-25 07:32:00,50.9,46.0,30.05,East,98,0.0,-999.0,84,-99.99,,,0.04,weatherlink.com 1.10,2017-04-25 11:32:00,
2017-04-25 07:46:00,50.5,47.0,30.05,ENE,72,1.0,-999.0,86,-99.99,,,0.06,weatherlink.com 1.10,2017-04-25 11:46:00,
2017-04-25 08:16:00,50.1,47.0,30.06,SSE,165,5.0,-999.0,89,-99.99,,,0.10,weatherlink.com 1.10,2017-04-25 12:16:00,
2017-04-25 08:32:00,49.6,47.0,30.05,WNW,296,3.0,-999.0,89,-99.99,,,0.11,weatherlink.com 1.10,2017-04-25 12:32:00,
2017-04-25 08:47:00,49.5,47.0,30.05,SSE,148,5.0,-999.0,90,-99.99,,,0.11,weatherlink.com 1.10,2017-04-25 12:47:00,
2017-04-25 09:02:00,49.4,47.0,30.06,ESE,105,2.0,-999.0,90,-99.99,,,0.11,weatherlink.com 1.10,2017-04-25 13:02:00,
2017-04-25 09:17:00,49.0,47.0,30.06,NNE,22,3.0,-999.0,91,-99.99,,,0.12,weatherlink.com 1.10,2017-04-25 13:17:00,
2017-04-25 09:32:00,49.3,47.0,30.06,East,94,1.0,-999.0,92,-99.99,,,0.12,weatherlink.com 1.10,2017-04-25 13:32:00,
2017-04-25 09:47:00,49.5,47.0,30.06,NE,42,3.0,-999.0,92,-99.99,,,0.12,weatherlink.com 1.10,2017-04-25 13:47:00,
2017-04-25 10:02:00,49.6,47.0,30.06,SSE,161,0.0,-999.0,92,-99.99,,,0.12,weatherlink.com 1.10,2017-04-25 14:02:00,
2017-04-25 10:17:00,49.1,47.0,30.06,South,170,1.0,-999.0,92,-99.99,,,0.13,weatherlink.com 1.10,2017-04-25 14:17:00,
2017-04-25 10:32:00,49.4,47.0,30.06,East,84,0.0,-999.0,92,-99.99,,,0.13,weatherlink.com 1.10,2017-04-25 14:32:00,
2017-04-25 10:47:00,49.4,48.0,30.06,SE,141,4.0,-999.0,93,-99.99,,,0.13,weatherlink.com 1.10,2017-04-25 14:47:00,
2017-04-25 11:02:00,49.9,48.0,30.06,ESE,121,1.0,-999.0,94,-99.99,,,0.13,weatherlink.com 1.10,2017-04-25 15:02:00,
2017-04-25 11:17:00,50.4,49.0,30.05,SE,141,2.0,-999.0,94,-99.99,,,0.13,weatherlink.com 1.10,2017-04-25 15:17:00,
2017-04-25 11:32:00,51.2,50.0,30.05,SE,142,2.0,-999.0,94,-99.99,,,0.14,weatherlink.com 1.10,2017-04-25 15:32:00,
2017-04-25 11:47:00,51.8,50.0,30.04,South,169,1.0,-999.0,94,-99.99,,,0.14,weatherlink.com 1.10,2017-04-25 15:47:00,
2017-04-25 12:02:00,53.0,51.0,30.04,SE,137,2.0,-999.0,94,-99.99,,,0.14,weatherlink.com 1.10,2017-04-25 16:02:00,
2017-04-25 12:17:00,54.4,53.0,30.03,SE,137,9.0,-999.0,95,-99.99,,,0.14,weatherlink.com 1.10,2017-04-25 16:17:00,
2017-04-25 12:32:00,54.4,52.0,30.02,SE,143,4.0,-999.0,91,-99.99,,,0.14,weatherlink.com 1.10,2017-04-25 16:32:00,
2017-04-25 12:47:00,54.4,51.0,30.02,ENE,67,0.0,-999.0,89,-99.99,,,0.14,weatherlink.com 1.10,2017-04-25 16:47:00,
2017-04-25 13:02:00,55.4,52.0,30.01,SE,130,1.0,-999.0,89,-99.99,,,0.14,weatherlink.com 1.10,2017-04-25 17:02:00,
2017-04-25 13:17:00,56.1,52.0,30.01,South,173,6.0,-999.0,87,-99.99,,,0.14,weatherlink.com 1.10,2017-04-25 17:17:00,
2017-04-25 13:32:00,55.8,52.0,30.00,South,172,7.0,-999.0,87,-99.99,,,0.14,weatherlink.com 1.10,2017-04-25 17:32:00,
2017-04-25 13:47:00,56.4,52.0,29.99,ESE,121,0.0,-999.0,86,-99.99,,,0.14,weatherlink.com 1.10,2017-04-25 17:47:00,
2017-04-25 14:02:00,56.5,52.0,29.99,SSE,149,2.0,-999.0,86,-99.99,,,0.14,weatherlink.com 1.10,2017-04-25 18:02:00,
2017-04-25 14:17:00,57.5,53.0,29.98,SE,132,0.0,-999.0,86,-99.99,,,0.14,weatherlink.com 1.10,2017-04-25 18:17:00,
2017-04-25 14:32:00,59.7,55.0,29.98,SSE,156,4.0,-999.0,83,-99.99,,,0.14,weatherlink.com 1.10,2017-04-25 18:32:00,
2017-04-25 14:47:00,60.7,53.0,29.97,SSE,162,6.0,-999.0,77,-99.99,,,0.14,weatherlink.com 1.10,2017-04-25 18:47:00,
2017-04-25 15:02:00,61.3,53.0,29.96,SSE,147,5.0,-999.0,74,-99.99,,,0.14,weatherlink.com 1.10,2017-04-25 19:02:00,
2017-04-25 15:32:00,62.1,53.0,29.96,SSE,155,5.0,-999.0,72,-99.99,,,0.14,weatherlink.com 1.10,2017-04-25 19:32:00,
2017-04-25 15:47:00,62.5,54.0,29.95,SE,144,6.0,-999.0,73,-99.99,,,0.14,weatherlink.com 1.10,2017-04-25 19:47:00,
2017-04-25 16:02:00,63.3,55.0,29.94,SSE,163,5.0,-999.0,73,-99.99,,,0.14,weatherlink.com 1.10,2017-04-25 20:02:00,
2017-04-25 16:17:00,63.8,54.0,29.93,SSE,148,7.0,-999.0,71,-99.99,,,0.14,weatherlink.com 1.10,2017-04-25 20:17:00,
2017-04-25 16:32:00,63.8,54.0,29.93,SSE,165,2.0,-999.0,71,-99.99,,,0.14,weatherlink.com 1.10,2017-04-25 20:32:00,
2017-04-25 16:48:00,62.9,54.0,29.93,SSE,159,4.0,-999.0,72,-99.99,,,0.14,weatherlink.com 1.10,2017-04-25 20:48:00,
2017-04-25 17:03:00,61.3,53.0,29.92,SE,124,4.0,-999.0,73,-99.99,,,0.14,weatherlink.com 1.10,2017-04-25 21:03:00,
2017-04-25 17:18:00,60.9,53.0,29.92,NE,49,0.0,-999.0,75,-99.99,,,0.14,weatherlink.com 1.10,2017-04-25 21:18:00,
2017-04-25 17:48:00,61.1,53.0,29.91,NNW,336,1.0,-999.0,75,-99.99,,,0.14,weatherlink.com 1.10,2017-04-25 21:48:00,
2017-04-25 18:03:00,60.8,53.0,29.91,ESE,103,5.0,-999.0,76,-99.99,,,0.14,weatherlink.com 1.10,2017-04-25 22:03:00,
2017-04-25 18:18:00,59.9,52.0,29.91,South,170,4.0,-999.0,76,-99.99,,,0.14,weatherlink.com 1.10,2017-04-25 22:18:00,
2017-04-25 18:33:00,59.0,52.0,29.91,SE,131,1.0,-999.0,77,-99.99,,,0.14,weatherlink.com 1.10,2017-04-25 22:33:00,
2017-04-25 18:48:00,58.6,52.0,29.90,ENE,70,5.0,-999.0,79,-99.99,,,0.14,weatherlink.com 1.10,2017-04-25 22:48:00,